Página principal
METAR-TAF:

METAR-TAF

Aeroportos :

Aeroporto Internacional de Genebra

Genebra, Suíça

latitude: 46-15N, longitude: 006-08E, altura: 420 m

Observação actual do tempo

O boletim foi feito há 33 minutos, às 00:20 UTC
Vento 1 kt com direcção variável
Temperatura 10°C
Humidade 76%
Pressão 1012 hPa
Visibilidade 10 km ou mais
sem nuvens abaixo de 1500 metros e sem cumulonimbus

METAR: LSGG 220020Z AUTO VRB01KT CAVOK 10/06 Q1012 NOSIG

Hora: 02:53 (00:53 UTC)

Previsão

O boletim foi feito há 1 hora e 28 minutos, às 23:25 UTC
Previsão válida de 22 às 00 UTC a 23 às 06 UTC
Vento 3 kt com direcção variável
Visibilidade 10 km ou mais
sem nuvens abaixo de 1500 metros e sem cumulonimbus

TAF: LSGG 212325Z 2200/2306 VRB03KT CAVOK TX22/2215Z TN08/2205Z TN08/2305Z

Observações e previsões do tempo de mais de 4000 aeroportos (mensagens METAR e TAF).

As estações disponíveis são os pontos amarelos e vermelhos sobre o mapa.

Mova o rato sobre o mapa para ver o nome da estação.

Depois clique no ponto para visualizar as observações e previsões meteorológicas.

Para alterar o mapa : clique nos botões verdes com uma cruz preta para aumentar o zoom; no botão verde com uma pitada de zoom; ou nas setas verdes para mapas adjacentes.


METAR-TAF: